sensor_id;sensor_type;location;lat;lon;timestamp;P1;durP1;ratioP1;P2;durP2;ratioP2
82642;SDS011;72323;41.914;22.438;2023-10-08T00:01:02;6.47;;;2.60;;
82642;SDS011;72323;41.914;22.438;2023-10-08T00:03:28;5.40;;;2.38;;
82642;SDS011;72323;41.914;22.438;2023-10-08T00:05:55;7.72;;;2.55;;
82642;SDS011;72323;41.914;22.438;2023-10-08T00:08:21;5.47;;;2.35;;
82642;SDS011;72323;41.914;22.438;2023-10-08T00:10:48;5.43;;;2.33;;
82642;SDS011;72323;41.914;22.438;2023-10-08T00:13:14;5.63;;;2.53;;
82642;SDS011;72323;41.914;22.438;2023-10-08T00:15:41;7.40;;;3.03;;
82642;SDS011;72323;41.914;22.438;2023-10-08T00:18:21;20.30;;;2.80;;
82642;SDS011;72323;41.914;22.438;2023-10-08T00:20:48;12.48;;;2.83;;
82642;SDS011;72323;41.914;22.438;2023-10-08T00:23:21;7.85;;;2.35;;
82642;SDS011;72323;41.914;22.438;2023-10-08T00:25:51;6.25;;;2.15;;
82642;SDS011;72323;41.914;22.438;2023-10-08T00:28:17;4.43;;;2.15;;
82642;SDS011;72323;41.914;22.438;2023-10-08T00:30:43;4.90;;;2.15;;
82642;SDS011;72323;41.914;22.438;2023-10-08T00:33:09;3.75;;;1.95;;
82642;SDS011;72323;41.914;22.438;2023-10-08T00:35:39;4.88;;;2.40;;
82642;SDS011;72323;41.914;22.438;2023-10-08T00:38:06;7.28;;;2.25;;
82642;SDS011;72323;41.914;22.438;2023-10-08T00:40:39;4.47;;;2.10;;
82642;SDS011;72323;41.914;22.438;2023-10-08T00:43:07;5.00;;;2.78;;
82642;SDS011;72323;41.914;22.438;2023-10-08T00:45:38;5.18;;;2.78;;
82642;SDS011;72323;41.914;22.438;2023-10-08T00:48:11;5.00;;;2.35;;
82642;SDS011;72323;41.914;22.438;2023-10-08T00:50:42;4.40;;;2.10;;
82642;SDS011;72323;41.914;22.438;2023-10-08T00:53:09;4.90;;;2.20;;
82642;SDS011;72323;41.914;22.438;2023-10-08T00:55:46;4.93;;;2.08;;
82642;SDS011;72323;41.914;22.438;2023-10-08T00:58:18;5.35;;;2.13;;
82642;SDS011;72323;41.914;22.438;2023-10-08T01:00:54;4.93;;;2.13;;
82642;SDS011;72323;41.914;22.438;2023-10-08T01:03:25;5.45;;;2.28;;
82642;SDS011;72323;41.914;22.438;2023-10-08T01:05:53;6.07;;;2.67;;
82642;SDS011;72323;41.914;22.438;2023-10-08T01:08:19;5.00;;;2.22;;
82642;SDS011;72323;41.914;22.438;2023-10-08T01:14:11;4.88;;;2.33;;
82642;SDS011;72323;41.914;22.438;2023-10-08T01:16:37;5.07;;;2.40;;
82642;SDS011;72323;41.914;22.438;2023-10-08T01:19:06;5.43;;;2.30;;
82642;SDS011;72323;41.914;22.438;2023-10-08T01:21:39;4.55;;;1.92;;
82642;SDS011;72323;41.914;22.438;2023-10-08T01:24:05;5.03;;;2.40;;
82642;SDS011;72323;41.914;22.438;2023-10-08T01:26:35;5.60;;;2.35;;
82642;SDS011;72323;41.914;22.438;2023-10-08T01:29:04;5.18;;;2.60;;
82642;SDS011;72323;41.914;22.438;2023-10-08T01:31:32;5.03;;;2.40;;
82642;SDS011;72323;41.914;22.438;2023-10-08T01:33:58;4.13;;;2.22;;
82642;SDS011;72323;41.914;22.438;2023-10-08T01:36:25;4.93;;;2.50;;
82642;SDS011;72323;41.914;22.438;2023-10-08T01:38:51;4.50;;;2.20;;
82642;SDS011;72323;41.914;22.438;2023-10-08T01:41:19;5.80;;;2.10;;
82642;SDS011;72323;41.914;22.438;2023-10-08T01:43:55;7.50;;;2.60;;
82642;SDS011;72323;41.914;22.438;2023-10-08T01:46:23;6.53;;;2.33;;
82642;SDS011;72323;41.914;22.438;2023-10-08T01:48:50;6.15;;;2.70;;
82642;SDS011;72323;41.914;22.438;2023-10-08T01:51:21;5.10;;;2.42;;
82642;SDS011;72323;41.914;22.438;2023-10-08T01:53:51;4.47;;;2.22;;
82642;SDS011;72323;41.914;22.438;2023-10-08T01:56:19;5.43;;;2.55;;
82642;SDS011;72323;41.914;22.438;2023-10-08T01:58:45;6.65;;;2.30;;
82642;SDS011;72323;41.914;22.438;2023-10-08T02:01:11;5.07;;;2.30;;
82642;SDS011;72323;41.914;22.438;2023-10-08T02:03:41;5.38;;;2.25;;
82642;SDS011;72323;41.914;22.438;2023-10-08T02:06:07;6.05;;;2.40;;
82642;SDS011;72323;41.914;22.438;2023-10-08T02:08:33;5.45;;;2.40;;
82642;SDS011;72323;41.914;22.438;2023-10-08T02:11:00;4.68;;;2.25;;
82642;SDS011;72323;41.914;22.438;2023-10-08T02:13:27;4.72;;;2.53;;
82642;SDS011;72323;41.914;22.438;2023-10-08T02:15:53;5.93;;;2.28;;
82642;SDS011;72323;41.914;22.438;2023-10-08T02:18:20;3.97;;;1.88;;
82642;SDS011;72323;41.914;22.438;2023-10-08T02:20:50;6.00;;;2.35;;
82642;SDS011;72323;41.914;22.438;2023-10-08T02:23:16;5.28;;;2.35;;
82642;SDS011;72323;41.914;22.438;2023-10-08T02:25:43;5.00;;;2.15;;
82642;SDS011;72323;41.914;22.438;2023-10-08T02:28:09;6.28;;;2.50;;
82642;SDS011;72323;41.914;22.438;2023-10-08T02:30:40;6.82;;;3.00;;
82642;SDS011;72323;41.914;22.438;2023-10-08T02:33:07;7.00;;;3.30;;
82642;SDS011;72323;41.914;22.438;2023-10-08T02:35:45;6.57;;;2.60;;
82642;SDS011;72323;41.914;22.438;2023-10-08T02:38:12;9.00;;;3.60;;
82642;SDS011;72323;41.914;22.438;2023-10-08T02:40:41;8.73;;;3.92;;
82642;SDS011;72323;41.914;22.438;2023-10-08T02:43:12;9.65;;;3.83;;
82642;SDS011;72323;41.914;22.438;2023-10-08T02:45:40;12.05;;;5.00;;
82642;SDS011;72323;41.914;22.438;2023-10-08T02:48:06;10.02;;;4.32;;
82642;SDS011;72323;41.914;22.438;2023-10-08T02:50:44;12.30;;;4.93;;
82642;SDS011;72323;41.914;22.438;2023-10-08T02:53:10;12.45;;;4.35;;
82642;SDS011;72323;41.914;22.438;2023-10-08T02:55:38;10.93;;;4.85;;
82642;SDS011;72323;41.914;22.438;2023-10-08T02:58:09;9.73;;;4.75;;
82642;SDS011;72323;41.914;22.438;2023-10-08T03:00:48;12.02;;;4.10;;
82642;SDS011;72323;41.914;22.438;2023-10-08T03:03:14;9.30;;;4.10;;
82642;SDS011;72323;41.914;22.438;2023-10-08T03:05:45;9.13;;;4.18;;
82642;SDS011;72323;41.914;22.438;2023-10-08T03:08:11;9.02;;;3.08;;
82642;SDS011;72323;41.914;22.438;2023-10-08T03:10:38;11.35;;;3.58;;
82642;SDS011;72323;41.914;22.438;2023-10-08T03:13:05;6.75;;;3.33;;
82642;SDS011;72323;41.914;22.438;2023-10-08T03:15:32;5.72;;;2.85;;
82642;SDS011;72323;41.914;22.438;2023-10-08T03:18:04;7.65;;;2.95;;
82642;SDS011;72323;41.914;22.438;2023-10-08T03:20:40;7.57;;;3.50;;
82642;SDS011;72323;41.914;22.438;2023-10-08T03:23:14;6.22;;;2.95;;
82642;SDS011;72323;41.914;22.438;2023-10-08T03:28:48;8.02;;;2.70;;
82642;SDS011;72323;41.914;22.438;2023-10-08T03:31:22;7.75;;;3.20;;
82642;SDS011;72323;41.914;22.438;2023-10-08T03:34:08;8.02;;;2.90;;
82642;SDS011;72323;41.914;22.438;2023-10-08T03:36:38;5.85;;;2.55;;
82642;SDS011;72323;41.914;22.438;2023-10-08T03:39:12;6.20;;;2.85;;
82642;SDS011;72323;41.914;22.438;2023-10-08T03:41:39;7.03;;;3.35;;
82642;SDS011;72323;41.914;22.438;2023-10-08T03:44:06;7.28;;;2.83;;
82642;SDS011;72323;41.914;22.438;2023-10-08T03:46:39;6.45;;;3.10;;
82642;SDS011;72323;41.914;22.438;2023-10-08T03:49:08;5.65;;;2.58;;
82642;SDS011;72323;41.914;22.438;2023-10-08T03:51:47;6.85;;;2.72;;
82642;SDS011;72323;41.914;22.438;2023-10-08T03:54:16;7.25;;;3.15;;
82642;SDS011;72323;41.914;22.438;2023-10-08T03:56:44;6.10;;;2.72;;
82642;SDS011;72323;41.914;22.438;2023-10-08T03:59:17;6.90;;;3.00;;
82642;SDS011;72323;41.914;22.438;2023-10-08T04:01:56;6.88;;;3.03;;
82642;SDS011;72323;41.914;22.438;2023-10-08T04:04:25;5.68;;;2.70;;
82642;SDS011;72323;41.914;22.438;2023-10-08T04:07:15;7.55;;;2.72;;
82642;SDS011;72323;41.914;22.438;2023-10-08T04:09:52;8.32;;;2.90;;
82642;SDS011;72323;41.914;22.438;2023-10-08T04:12:30;6.15;;;2.45;;
82642;SDS011;72323;41.914;22.438;2023-10-08T04:15:00;6.50;;;2.65;;
82642;SDS011;72323;41.914;22.438;2023-10-08T04:17:26;5.65;;;2.47;;
82642;SDS011;72323;41.914;22.438;2023-10-08T04:19:54;7.90;;;2.95;;
82642;SDS011;72323;41.914;22.438;2023-10-08T04:22:23;6.15;;;2.85;;
82642;SDS011;72323;41.914;22.438;2023-10-08T04:24:50;6.45;;;2.50;;
82642;SDS011;72323;41.914;22.438;2023-10-08T04:27:16;6.57;;;2.88;;
82642;SDS011;72323;41.914;22.438;2023-10-08T04:29:43;5.00;;;2.80;;
82642;SDS011;72323;41.914;22.438;2023-10-08T04:32:14;4.80;;;2.60;;
82642;SDS011;72323;41.914;22.438;2023-10-08T04:34:47;6.18;;;3.13;;
82642;SDS011;72323;41.914;22.438;2023-10-08T04:37:15;7.65;;;3.08;;
82642;SDS011;72323;41.914;22.438;2023-10-08T04:39:45;9.20;;;3.30;;
82642;SDS011;72323;41.914;22.438;2023-10-08T04:42:23;5.88;;;3.35;;
82642;SDS011;72323;41.914;22.438;2023-10-08T04:44:52;7.43;;;3.28;;
82642;SDS011;72323;41.914;22.438;2023-10-08T04:47:19;7.15;;;3.20;;
82642;SDS011;72323;41.914;22.438;2023-10-08T04:49:57;7.65;;;3.22;;
82642;SDS011;72323;41.914;22.438;2023-10-08T04:52:23;5.97;;;2.95;;
82642;SDS011;72323;41.914;22.438;2023-10-08T04:54:52;7.05;;;3.67;;
82642;SDS011;72323;41.914;22.438;2023-10-08T04:57:20;7.90;;;3.38;;
82642;SDS011;72323;41.914;22.438;2023-10-08T05:02:22;7.07;;;3.30;;
82642;SDS011;72323;41.914;22.438;2023-10-08T05:05:07;10.57;;;4.20;;
82642;SDS011;72323;41.914;22.438;2023-10-08T05:07:36;9.45;;;3.70;;
82642;SDS011;72323;41.914;22.438;2023-10-08T05:10:19;7.30;;;3.65;;
82642;SDS011;72323;41.914;22.438;2023-10-08T05:12:49;8.32;;;3.55;;
82642;SDS011;72323;41.914;22.438;2023-10-08T05:15:27;9.15;;;4.32;;
82642;SDS011;72323;41.914;22.438;2023-10-08T05:18:03;10.68;;;4.05;;
82642;SDS011;72323;41.914;22.438;2023-10-08T05:20:58;8.88;;;3.72;;
82642;SDS011;72323;41.914;22.438;2023-10-08T05:23:27;9.45;;;3.35;;
82642;SDS011;72323;41.914;22.438;2023-10-08T05:25:53;10.77;;;3.72;;
82642;SDS011;72323;41.914;22.438;2023-10-08T05:28:26;8.18;;;3.67;;
82642;SDS011;72323;41.914;22.438;2023-10-08T05:30:54;8.70;;;3.78;;
82642;SDS011;72323;41.914;22.438;2023-10-08T05:33:39;7.75;;;3.00;;
82642;SDS011;72323;41.914;22.438;2023-10-08T05:36:24;8.50;;;3.17;;
82642;SDS011;72323;41.914;22.438;2023-10-08T05:38:59;6.72;;;3.10;;
82642;SDS011;72323;41.914;22.438;2023-10-08T05:41:29;8.10;;;3.53;;
82642;SDS011;72323;41.914;22.438;2023-10-08T05:44:05;8.43;;;3.25;;
82642;SDS011;72323;41.914;22.438;2023-10-08T05:47:01;7.05;;;3.38;;
82642;SDS011;72323;41.914;22.438;2023-10-08T05:49:43;7.80;;;3.08;;
82642;SDS011;72323;41.914;22.438;2023-10-08T05:52:19;8.77;;;3.72;;
82642;SDS011;72323;41.914;22.438;2023-10-08T05:55:06;9.95;;;3.67;;
82642;SDS011;72323;41.914;22.438;2023-10-08T05:57:54;9.48;;;3.90;;
82642;SDS011;72323;41.914;22.438;2023-10-08T06:00:42;7.20;;;3.60;;
82642;SDS011;72323;41.914;22.438;2023-10-08T06:03:32;7.75;;;3.28;;
82642;SDS011;72323;41.914;22.438;2023-10-08T06:06:03;6.78;;;2.92;;
82642;SDS011;72323;41.914;22.438;2023-10-08T06:08:41;6.88;;;3.10;;
82642;SDS011;72323;41.914;22.438;2023-10-08T06:11:29;5.63;;;2.83;;
82642;SDS011;72323;41.914;22.438;2023-10-08T06:14:21;5.40;;;2.97;;
82642;SDS011;72323;41.914;22.438;2023-10-08T06:17:10;6.60;;;3.17;;
82642;SDS011;72323;41.914;22.438;2023-10-08T06:19:49;6.20;;;3.03;;
82642;SDS011;72323;41.914;22.438;2023-10-08T06:22:17;10.20;;;3.60;;
82642;SDS011;72323;41.914;22.438;2023-10-08T06:24:44;9.57;;;3.75;;
82642;SDS011;72323;41.914;22.438;2023-10-08T06:27:10;8.07;;;3.60;;
82642;SDS011;72323;41.914;22.438;2023-10-08T06:29:42;7.38;;;3.10;;
82642;SDS011;72323;41.914;22.438;2023-10-08T06:32:09;6.50;;;3.38;;
82642;SDS011;72323;41.914;22.438;2023-10-08T06:34:37;7.97;;;3.10;;
82642;SDS011;72323;41.914;22.438;2023-10-08T06:37:05;6.70;;;3.67;;
82642;SDS011;72323;41.914;22.438;2023-10-08T06:39:33;6.53;;;3.33;;
82642;SDS011;72323;41.914;22.438;2023-10-08T06:42:12;5.03;;;3.08;;
82642;SDS011;72323;41.914;22.438;2023-10-08T06:44:40;10.35;;;3.65;;
82642;SDS011;72323;41.914;22.438;2023-10-08T06:47:11;7.10;;;3.35;;
82642;SDS011;72323;41.914;22.438;2023-10-08T06:49:41;9.20;;;4.07;;
82642;SDS011;72323;41.914;22.438;2023-10-08T06:52:07;7.80;;;3.45;;
82642;SDS011;72323;41.914;22.438;2023-10-08T06:54:36;6.18;;;3.42;;
82642;SDS011;72323;41.914;22.438;2023-10-08T06:57:02;9.07;;;3.30;;
82642;SDS011;72323;41.914;22.438;2023-10-08T06:59:28;14.18;;;3.75;;
82642;SDS011;72323;41.914;22.438;2023-10-08T07:01:56;6.32;;;3.25;;
82642;SDS011;72323;41.914;22.438;2023-10-08T07:04:24;8.40;;;3.60;;
82642;SDS011;72323;41.914;22.438;2023-10-08T07:06:50;5.82;;;3.58;;
82642;SDS011;72323;41.914;22.438;2023-10-08T07:09:17;6.72;;;3.10;;
82642;SDS011;72323;41.914;22.438;2023-10-08T07:14:20;6.78;;;3.10;;
82642;SDS011;72323;41.914;22.438;2023-10-08T07:16:46;6.28;;;2.97;;
82642;SDS011;72323;41.914;22.438;2023-10-08T07:19:16;7.05;;;3.30;;
82642;SDS011;72323;41.914;22.438;2023-10-08T07:21:44;8.07;;;3.20;;
82642;SDS011;72323;41.914;22.438;2023-10-08T07:24:13;6.70;;;2.80;;
82642;SDS011;72323;41.914;22.438;2023-10-08T07:26:46;5.15;;;3.20;;
82642;SDS011;72323;41.914;22.438;2023-10-08T07:29:13;8.38;;;2.90;;
82642;SDS011;72323;41.914;22.438;2023-10-08T07:34:13;5.63;;;2.95;;
82642;SDS011;72323;41.914;22.438;2023-10-08T07:37:05;8.73;;;3.28;;
82642;SDS011;72323;41.914;22.438;2023-10-08T07:39:31;5.68;;;2.72;;
82642;SDS011;72323;41.914;22.438;2023-10-08T07:41:58;5.82;;;3.13;;
82642;SDS011;72323;41.914;22.438;2023-10-08T07:44:25;5.85;;;2.80;;
82642;SDS011;72323;41.914;22.438;2023-10-08T07:46:55;6.07;;;2.80;;
82642;SDS011;72323;41.914;22.438;2023-10-08T07:49:22;7.95;;;3.28;;
82642;SDS011;72323;41.914;22.438;2023-10-08T07:51:55;5.70;;;2.88;;
82642;SDS011;72323;41.914;22.438;2023-10-08T07:54:23;8.65;;;2.90;;
82642;SDS011;72323;41.914;22.438;2023-10-08T07:56:49;6.47;;;3.00;;
82642;SDS011;72323;41.914;22.438;2023-10-08T07:59:37;7.13;;;2.83;;
82642;SDS011;72323;41.914;22.438;2023-10-08T08:02:12;7.63;;;2.92;;
82642;SDS011;72323;41.914;22.438;2023-10-08T08:04:38;7.18;;;3.53;;
82642;SDS011;72323;41.914;22.438;2023-10-08T08:07:12;8.05;;;2.83;;
82642;SDS011;72323;41.914;22.438;2023-10-08T08:09:44;10.55;;;3.15;;
82642;SDS011;72323;41.914;22.438;2023-10-08T08:12:19;5.72;;;3.08;;
82642;SDS011;72323;41.914;22.438;2023-10-08T08:14:46;4.65;;;2.67;;
82642;SDS011;72323;41.914;22.438;2023-10-08T08:17:13;5.93;;;2.35;;
82642;SDS011;72323;41.914;22.438;2023-10-08T08:19:43;7.88;;;3.65;;
82642;SDS011;72323;41.914;22.438;2023-10-08T08:22:10;6.78;;;3.00;;
82642;SDS011;72323;41.914;22.438;2023-10-08T08:27:18;5.13;;;2.70;;
82642;SDS011;72323;41.914;22.438;2023-10-08T08:30:13;5.75;;;3.03;;
82642;SDS011;72323;41.914;22.438;2023-10-08T08:32:45;6.80;;;3.10;;
82642;SDS011;72323;41.914;22.438;2023-10-08T08:35:15;6.32;;;2.83;;
82642;SDS011;72323;41.914;22.438;2023-10-08T08:37:45;5.13;;;2.85;;
82642;SDS011;72323;41.914;22.438;2023-10-08T08:40:17;5.88;;;2.45;;
82642;SDS011;72323;41.914;22.438;2023-10-08T08:45:09;7.72;;;2.80;;
82642;SDS011;72323;41.914;22.438;2023-10-08T08:47:38;11.20;;;3.30;;
82642;SDS011;72323;41.914;22.438;2023-10-08T08:50:09;5.82;;;2.58;;
82642;SDS011;72323;41.914;22.438;2023-10-08T08:52:39;6.05;;;3.17;;
82642;SDS011;72323;41.914;22.438;2023-10-08T08:55:06;8.50;;;3.35;;
82642;SDS011;72323;41.914;22.438;2023-10-08T08:57:44;4.95;;;3.13;;
82642;SDS011;72323;41.914;22.438;2023-10-08T09:00:14;5.25;;;3.15;;
82642;SDS011;72323;41.914;22.438;2023-10-08T09:02:41;5.05;;;3.03;;
82642;SDS011;72323;41.914;22.438;2023-10-08T09:05:09;7.55;;;3.70;;
82642;SDS011;72323;41.914;22.438;2023-10-08T09:10:19;8.93;;;3.45;;
82642;SDS011;72323;41.914;22.438;2023-10-08T09:12:51;7.53;;;3.15;;
82642;SDS011;72323;41.914;22.438;2023-10-08T09:15:17;8.25;;;3.25;;
82642;SDS011;72323;41.914;22.438;2023-10-08T09:17:43;6.13;;;3.58;;
82642;SDS011;72323;41.914;22.438;2023-10-08T09:20:10;5.78;;;3.05;;
82642;SDS011;72323;41.914;22.438;2023-10-08T09:22:37;6.88;;;3.40;;
82642;SDS011;72323;41.914;22.438;2023-10-08T09:25:03;10.50;;;3.42;;
82642;SDS011;72323;41.914;22.438;2023-10-08T09:27:32;7.00;;;2.85;;
82642;SDS011;72323;41.914;22.438;2023-10-08T09:29:58;8.00;;;3.15;;
82642;SDS011;72323;41.914;22.438;2023-10-08T09:32:25;8.25;;;3.50;;
82642;SDS011;72323;41.914;22.438;2023-10-08T09:34:54;8.60;;;3.42;;
82642;SDS011;72323;41.914;22.438;2023-10-08T09:37:21;7.95;;;3.70;;
82642;SDS011;72323;41.914;22.438;2023-10-08T09:39:48;7.63;;;3.40;;
82642;SDS011;72323;41.914;22.438;2023-10-08T09:42:17;5.75;;;3.50;;
82642;SDS011;72323;41.914;22.438;2023-10-08T09:44:47;8.35;;;3.90;;
82642;SDS011;72323;41.914;22.438;2023-10-08T09:47:14;7.82;;;3.45;;
82642;SDS011;72323;41.914;22.438;2023-10-08T09:49:57;7.10;;;3.53;;
82642;SDS011;72323;41.914;22.438;2023-10-08T09:52:29;9.13;;;3.88;;
82642;SDS011;72323;41.914;22.438;2023-10-08T09:54:59;7.55;;;3.45;;
82642;SDS011;72323;41.914;22.438;2023-10-08T09:57:29;7.93;;;3.72;;
82642;SDS011;72323;41.914;22.438;2023-10-08T09:59:55;6.18;;;3.58;;
82642;SDS011;72323;41.914;22.438;2023-10-08T10:02:22;5.57;;;3.45;;
82642;SDS011;72323;41.914;22.438;2023-10-08T10:04:52;6.32;;;3.25;;
82642;SDS011;72323;41.914;22.438;2023-10-08T10:07:18;7.40;;;4.00;;
82642;SDS011;72323;41.914;22.438;2023-10-08T10:09:49;6.35;;;3.75;;
82642;SDS011;72323;41.914;22.438;2023-10-08T10:12:24;6.82;;;3.60;;
82642;SDS011;72323;41.914;22.438;2023-10-08T10:14:54;10.52;;;4.60;;
82642;SDS011;72323;41.914;22.438;2023-10-08T10:17:22;10.43;;;4.25;;
82642;SDS011;72323;41.914;22.438;2023-10-08T10:19:56;7.95;;;3.83;;
82642;SDS011;72323;41.914;22.438;2023-10-08T10:22:34;8.35;;;4.40;;
82642;SDS011;72323;41.914;22.438;2023-10-08T10:25:04;9.25;;;4.47;;
82642;SDS011;72323;41.914;22.438;2023-10-08T10:30:21;10.55;;;5.07;;
82642;SDS011;72323;41.914;22.438;2023-10-08T10:32:51;8.82;;;4.15;;
82642;SDS011;72323;41.914;22.438;2023-10-08T10:40:20;7.85;;;4.50;;
82642;SDS011;72323;41.914;22.438;2023-10-08T10:42:57;9.98;;;4.60;;
82642;SDS011;72323;41.914;22.438;2023-10-08T10:45:28;13.27;;;5.05;;
82642;SDS011;72323;41.914;22.438;2023-10-08T10:48:21;10.68;;;5.13;;
82642;SDS011;72323;41.914;22.438;2023-10-08T10:50:48;9.77;;;4.70;;
82642;SDS011;72323;41.914;22.438;2023-10-08T10:53:36;12.00;;;4.72;;
82642;SDS011;72323;41.914;22.438;2023-10-08T10:56:32;12.73;;;4.53;;
82642;SDS011;72323;41.914;22.438;2023-10-08T10:59:07;10.27;;;4.47;;
82642;SDS011;72323;41.914;22.438;2023-10-08T11:01:52;6.35;;;3.75;;
82642;SDS011;72323;41.914;22.438;2023-10-08T11:04:30;8.77;;;4.65;;
82642;SDS011;72323;41.914;22.438;2023-10-08T11:06:57;6.28;;;3.22;;
82642;SDS011;72323;41.914;22.438;2023-10-08T11:09:27;8.23;;;4.00;;
82642;SDS011;72323;41.914;22.438;2023-10-08T11:12:09;7.88;;;3.38;;
82642;SDS011;72323;41.914;22.438;2023-10-08T11:14:40;6.35;;;3.38;;
82642;SDS011;72323;41.914;22.438;2023-10-08T11:17:10;6.35;;;3.33;;
82642;SDS011;72323;41.914;22.438;2023-10-08T11:19:36;8.35;;;3.50;;
82642;SDS011;72323;41.914;22.438;2023-10-08T11:22:02;9.90;;;3.75;;
82642;SDS011;72323;41.914;22.438;2023-10-08T11:24:31;6.90;;;3.00;;
82642;SDS011;72323;41.914;22.438;2023-10-08T11:27:02;8.80;;;3.53;;
82642;SDS011;72323;41.914;22.438;2023-10-08T11:29:49;9.10;;;3.78;;
82642;SDS011;72323;41.914;22.438;2023-10-08T11:32:23;6.85;;;3.30;;
82642;SDS011;72323;41.914;22.438;2023-10-08T11:34:56;9.40;;;3.40;;
82642;SDS011;72323;41.914;22.438;2023-10-08T11:39:54;7.97;;;3.35;;
82642;SDS011;72323;41.914;22.438;2023-10-08T11:42:23;4.78;;;2.97;;
82642;SDS011;72323;41.914;22.438;2023-10-08T11:45:02;7.57;;;3.13;;
82642;SDS011;72323;41.914;22.438;2023-10-08T11:47:46;6.60;;;3.08;;
82642;SDS011;72323;41.914;22.438;2023-10-08T11:50:27;7.25;;;3.38;;
82642;SDS011;72323;41.914;22.438;2023-10-08T11:52:57;7.47;;;3.30;;
82642;SDS011;72323;41.914;22.438;2023-10-08T11:55:27;7.32;;;3.08;;
82642;SDS011;72323;41.914;22.438;2023-10-08T11:57:53;5.18;;;2.83;;
82642;SDS011;72323;41.914;22.438;2023-10-08T12:00:19;7.38;;;3.20;;
82642;SDS011;72323;41.914;22.438;2023-10-08T12:02:50;8.13;;;3.00;;
82642;SDS011;72323;41.914;22.438;2023-10-08T12:05:19;7.50;;;2.83;;
82642;SDS011;72323;41.914;22.438;2023-10-08T12:07:46;7.60;;;2.95;;
82642;SDS011;72323;41.914;22.438;2023-10-08T12:10:13;7.50;;;2.85;;
82642;SDS011;72323;41.914;22.438;2023-10-08T12:12:42;6.68;;;2.95;;
82642;SDS011;72323;41.914;22.438;2023-10-08T12:17:43;6.22;;;3.22;;
82642;SDS011;72323;41.914;22.438;2023-10-08T12:20:18;8.23;;;3.15;;
82642;SDS011;72323;41.914;22.438;2023-10-08T12:22:52;7.68;;;3.50;;
82642;SDS011;72323;41.914;22.438;2023-10-08T12:25:18;6.72;;;3.28;;
82642;SDS011;72323;41.914;22.438;2023-10-08T12:27:45;11.35;;;2.72;;
82642;SDS011;72323;41.914;22.438;2023-10-08T12:30:12;6.43;;;2.35;;
82642;SDS011;72323;41.914;22.438;2023-10-08T12:32:38;9.98;;;2.63;;
82642;SDS011;72323;41.914;22.438;2023-10-08T12:35:10;6.72;;;2.60;;
82642;SDS011;72323;41.914;22.438;2023-10-08T12:37:40;6.60;;;3.15;;
82642;SDS011;72323;41.914;22.438;2023-10-08T12:40:09;7.75;;;3.15;;
82642;SDS011;72323;41.914;22.438;2023-10-08T12:42:56;6.50;;;3.13;;
82642;SDS011;72323;41.914;22.438;2023-10-08T12:45:24;9.20;;;2.60;;
82642;SDS011;72323;41.914;22.438;2023-10-08T12:47:52;9.00;;;2.97;;
82642;SDS011;72323;41.914;22.438;2023-10-08T12:50:19;4.93;;;2.63;;
82642;SDS011;72323;41.914;22.438;2023-10-08T12:52:57;7.30;;;3.00;;
82642;SDS011;72323;41.914;22.438;2023-10-08T12:55:29;7.90;;;3.03;;
82642;SDS011;72323;41.914;22.438;2023-10-08T12:57:56;10.95;;;3.45;;
82642;SDS011;72323;41.914;22.438;2023-10-08T13:00:31;7.93;;;2.95;;
82642;SDS011;72323;41.914;22.438;2023-10-08T13:02:57;9.25;;;3.25;;
82642;SDS011;72323;41.914;22.438;2023-10-08T13:05:26;5.95;;;2.80;;
82642;SDS011;72323;41.914;22.438;2023-10-08T13:07:56;7.85;;;2.55;;
82642;SDS011;72323;41.914;22.438;2023-10-08T13:10:28;10.77;;;3.55;;
82642;SDS011;72323;41.914;22.438;2023-10-08T13:12:56;7.65;;;2.58;;
82642;SDS011;72323;41.914;22.438;2023-10-08T13:15:22;7.03;;;2.90;;
82642;SDS011;72323;41.914;22.438;2023-10-08T13:17:51;8.63;;;2.33;;
82642;SDS011;72323;41.914;22.438;2023-10-08T13:20:17;8.70;;;2.28;;
82642;SDS011;72323;41.914;22.438;2023-10-08T13:22:44;11.90;;;2.40;;
82642;SDS011;72323;41.914;22.438;2023-10-08T13:25:11;9.40;;;2.15;;
82642;SDS011;72323;41.914;22.438;2023-10-08T13:27:38;13.35;;;2.72;;
82642;SDS011;72323;41.914;22.438;2023-10-08T13:30:07;11.13;;;2.70;;
82642;SDS011;72323;41.914;22.438;2023-10-08T13:32:36;8.35;;;2.25;;
82642;SDS011;72323;41.914;22.438;2023-10-08T13:35:03;13.85;;;2.42;;
82642;SDS011;72323;41.914;22.438;2023-10-08T13:37:35;6.25;;;1.80;;
82642;SDS011;72323;41.914;22.438;2023-10-08T13:40:02;8.52;;;1.98;;
82642;SDS011;72323;41.914;22.438;2023-10-08T13:42:28;8.15;;;2.00;;
82642;SDS011;72323;41.914;22.438;2023-10-08T13:44:57;7.75;;;2.05;;
82642;SDS011;72323;41.914;22.438;2023-10-08T13:47:24;13.93;;;2.60;;
82642;SDS011;72323;41.914;22.438;2023-10-08T13:49:54;13.05;;;2.45;;
82642;SDS011;72323;41.914;22.438;2023-10-08T13:52:20;8.13;;;2.10;;
82642;SDS011;72323;41.914;22.438;2023-10-08T13:54:51;11.55;;;2.50;;
82642;SDS011;72323;41.914;22.438;2023-10-08T13:57:20;10.68;;;2.47;;
82642;SDS011;72323;41.914;22.438;2023-10-08T13:59:47;11.00;;;3.10;;
82642;SDS011;72323;41.914;22.438;2023-10-08T14:02:14;7.63;;;2.38;;
82642;SDS011;72323;41.914;22.438;2023-10-08T14:04:43;10.05;;;2.35;;
82642;SDS011;72323;41.914;22.438;2023-10-08T14:07:13;10.38;;;2.67;;
82642;SDS011;72323;41.914;22.438;2023-10-08T14:09:45;8.35;;;2.28;;
82642;SDS011;72323;41.914;22.438;2023-10-08T14:12:12;10.15;;;2.85;;
82642;SDS011;72323;41.914;22.438;2023-10-08T14:14:39;12.75;;;2.42;;
82642;SDS011;72323;41.914;22.438;2023-10-08T14:17:14;10.77;;;2.20;;
82642;SDS011;72323;41.914;22.438;2023-10-08T14:19:40;9.48;;;2.35;;
82642;SDS011;72323;41.914;22.438;2023-10-08T14:22:24;8.90;;;2.85;;
82642;SDS011;72323;41.914;22.438;2023-10-08T14:24:52;10.85;;;2.88;;
82642;SDS011;72323;41.914;22.438;2023-10-08T14:27:25;7.70;;;2.40;;
82642;SDS011;72323;41.914;22.438;2023-10-08T14:29:56;6.57;;;2.72;;
82642;SDS011;72323;41.914;22.438;2023-10-08T14:32:26;9.75;;;2.60;;
82642;SDS011;72323;41.914;22.438;2023-10-08T14:34:53;9.65;;;3.70;;
82642;SDS011;72323;41.914;22.438;2023-10-08T14:37:19;11.82;;;3.10;;
82642;SDS011;72323;41.914;22.438;2023-10-08T14:40:04;12.82;;;2.67;;
82642;SDS011;72323;41.914;22.438;2023-10-08T14:42:49;7.75;;;2.58;;
82642;SDS011;72323;41.914;22.438;2023-10-08T14:45:25;12.90;;;3.33;;
82642;SDS011;72323;41.914;22.438;2023-10-08T14:47:54;9.88;;;2.20;;
82642;SDS011;72323;41.914;22.438;2023-10-08T14:50:21;9.18;;;2.75;;
82642;SDS011;72323;41.914;22.438;2023-10-08T14:52:47;10.95;;;2.60;;
82642;SDS011;72323;41.914;22.438;2023-10-08T14:55:13;13.23;;;2.75;;
82642;SDS011;72323;41.914;22.438;2023-10-08T14:57:41;9.10;;;2.72;;
82642;SDS011;72323;41.914;22.438;2023-10-08T15:00:07;9.13;;;2.47;;
82642;SDS011;72323;41.914;22.438;2023-10-08T15:02:34;9.32;;;2.33;;
82642;SDS011;72323;41.914;22.438;2023-10-08T15:05:00;6.68;;;2.40;;
82642;SDS011;72323;41.914;22.438;2023-10-08T15:07:26;10.65;;;2.67;;
82642;SDS011;72323;41.914;22.438;2023-10-08T15:09:55;11.02;;;2.38;;
82642;SDS011;72323;41.914;22.438;2023-10-08T15:12:25;10.27;;;2.33;;
82642;SDS011;72323;41.914;22.438;2023-10-08T15:17:17;13.90;;;2.90;;
82642;SDS011;72323;41.914;22.438;2023-10-08T15:19:44;10.63;;;2.75;;
82642;SDS011;72323;41.914;22.438;2023-10-08T15:22:13;11.15;;;2.88;;
82642;SDS011;72323;41.914;22.438;2023-10-08T15:24:39;10.68;;;3.03;;
82642;SDS011;72323;41.914;22.438;2023-10-08T15:27:07;8.98;;;2.95;;
82642;SDS011;72323;41.914;22.438;2023-10-08T15:29:35;11.02;;;2.53;;
82642;SDS011;72323;41.914;22.438;2023-10-08T15:32:02;9.80;;;2.97;;